createdAt,value
2018-06-09T00:01:48.510Z,55.63
2018-06-09T00:04:17.534Z,55.82
2018-06-09T00:06:46.258Z,55.87
2018-06-09T00:09:14.670Z,55.96
2018-06-09T00:11:43.285Z,56.02
2018-06-09T00:14:12.213Z,56.22
2018-06-09T00:16:40.777Z,55.90
2018-06-09T00:19:09.613Z,56.15
2018-06-09T00:21:39.714Z,56.31
2018-06-09T00:24:08.145Z,56.67
2018-06-09T00:26:36.717Z,56.92
2018-06-09T00:29:05.245Z,56.89
2018-06-09T00:31:33.793Z,56.70
2018-06-09T00:34:03.325Z,56.87
2018-06-09T00:36:32.034Z,57.12
2018-06-09T00:39:00.501Z,57.23
2018-06-09T00:41:29.060Z,57.54
2018-06-09T00:43:57.510Z,57.43
2018-06-09T00:46:25.938Z,57.61
2018-06-09T00:48:54.757Z,57.60
2018-06-09T00:51:23.377Z,57.51
2018-06-09T00:53:51.889Z,57.83
2018-06-09T00:56:32.247Z,58.04
2018-06-09T00:59:00.728Z,57.94
2018-06-09T01:01:29.146Z,58.11
2018-06-09T01:03:58.574Z,58.10
2018-06-09T01:06:27.373Z,58.38
2018-06-09T01:08:55.808Z,58.47
2018-06-09T01:11:24.629Z,58.57
2018-06-09T01:13:53.465Z,58.63
2018-06-09T01:16:21.925Z,58.91
2018-06-09T01:18:50.969Z,59.02
2018-06-09T01:21:19.794Z,58.95
2018-06-09T01:23:48.213Z,59.64
2018-06-09T01:26:16.744Z,59.16
2018-06-09T01:28:45.273Z,59.70
2018-06-09T01:31:13.702Z,59.47
2018-06-09T01:33:42.524Z,59.86
2018-06-09T01:36:11.298Z,59.49
2018-06-09T01:38:39.733Z,59.44
2018-06-09T01:41:08.277Z,59.71
2018-06-09T01:43:37.001Z,59.84
2018-06-09T01:46:05.421Z,60.19
2018-06-09T01:48:34.294Z,60.06
2018-06-09T01:51:02.713Z,59.99
2018-06-09T01:53:31.131Z,59.90
2018-06-09T01:56:00.076Z,60.11
2018-06-09T01:58:28.494Z,60.19
2018-06-09T02:00:57.005Z,60.17
2018-06-09T02:03:25.824Z,60.21
2018-06-09T02:05:54.345Z,60.44
2018-06-09T02:08:22.757Z,60.54
2018-06-09T02:10:51.817Z,60.69
2018-06-09T02:13:20.229Z,60.93
2018-06-09T02:15:48.658Z,60.55
2018-06-09T02:18:17.457Z,60.51
2018-06-09T02:20:45.898Z,60.66
2018-06-09T02:23:14.325Z,60.88
2018-06-09T02:25:43.368Z,60.60
2018-06-09T02:28:11.808Z,60.73
2018-06-09T02:30:40.489Z,60.78
2018-06-09T02:33:09.501Z,60.80
2018-06-09T02:35:37.928Z,61.09
2018-06-09T02:38:06.637Z,61.02
2018-06-09T02:40:35.798Z,61.36
2018-06-09T02:43:04.382Z,61.04
2018-06-09T02:45:32.794Z,61.29
2018-06-09T02:48:01.750Z,60.86
2018-06-09T02:50:30.626Z,61.15
2018-06-09T02:52:59.907Z,60.98
2018-06-09T02:55:28.765Z,61.46
2018-06-09T02:57:57.261Z,61.37
2018-06-09T03:00:25.730Z,61.40
2018-06-09T03:02:54.578Z,61.12
2018-06-09T03:05:23.089Z,61.19
2018-06-09T03:07:51.560Z,61.39
2018-06-09T03:10:20.581Z,61.18
2018-06-09T03:12:49.030Z,61.03
2018-06-09T03:15:17.629Z,61.44
2018-06-09T03:17:46.938Z,61.33
2018-06-09T03:20:15.769Z,61.38
2018-06-09T03:22:44.193Z,61.40
2018-06-09T03:25:12.989Z,61.32
2018-06-09T03:27:41.433Z,61.53
2018-06-09T03:30:09.857Z,61.37
2018-06-09T03:32:38.735Z,61.29
2018-06-09T03:35:07.283Z,61.13
2018-06-09T03:37:35.978Z,61.17
2018-06-09T03:40:04.790Z,61.69
2018-06-09T03:42:33.410Z,61.38
2018-06-09T03:45:01.836Z,61.79
2018-06-09T03:47:31.223Z,61.42
2018-06-09T03:49:59.981Z,61.56
2018-06-09T03:52:28.425Z,61.69
2018-06-09T03:54:57.216Z,61.04
2018-06-09T03:57:25.817Z,61.09
2018-06-09T03:59:54.354Z,61.14
2018-06-09T04:02:23.161Z,61.04
2018-06-09T04:04:51.695Z,60.93
2018-06-09T04:07:20.125Z,61.30
2018-06-09T04:09:48.975Z,60.95
2018-06-09T04:12:17.857Z,61.22
2018-06-09T04:14:46.321Z,61.31
2018-06-09T04:17:15.141Z,61.19
2018-06-09T04:19:43.910Z,61.21
2018-06-09T04:22:12.369Z,61.15
2018-06-09T04:24:41.203Z,60.93
2018-06-09T04:27:09.786Z,60.71
2018-06-09T04:29:38.245Z,61.08
2018-06-09T04:32:07.265Z,60.92
2018-06-09T04:34:35.765Z,60.76
2018-06-09T04:37:04.262Z,60.70
2018-06-09T04:39:32.901Z,60.15
2018-06-09T04:42:01.804Z,60.19
2018-06-09T04:44:30.885Z,59.62
2018-06-09T04:46:59.585Z,59.24
2018-06-09T04:49:28.319Z,59.39
2018-06-09T04:51:56.737Z,59.11
2018-06-09T04:54:25.973Z,58.66
2018-06-09T04:56:54.993Z,58.74
2018-06-09T04:59:23.441Z,58.87
2018-06-09T05:01:52.338Z,58.44
2018-06-09T05:04:21.185Z,58.47
2018-06-09T05:06:49.626Z,58.20
2018-06-09T05:09:19.618Z,58.24
2018-06-09T05:11:48.789Z,58.08
2018-06-09T05:14:17.221Z,57.92
2018-06-09T05:16:46.005Z,58.07
2018-06-09T05:19:14.559Z,57.74
2018-06-09T05:21:43.004Z,57.52
2018-06-09T05:24:11.782Z,57.57
2018-06-09T05:26:40.569Z,57.62
2018-06-09T05:29:09.066Z,57.47
2018-06-09T05:31:38.101Z,56.94
2018-06-09T05:34:07.002Z,56.90
2018-06-09T05:36:35.507Z,57.03
2018-06-09T05:39:06.069Z,56.90
2018-06-09T05:41:34.685Z,56.22
2018-06-09T05:44:03.505Z,55.68
2018-06-09T05:46:32.661Z,55.52
2018-06-09T05:49:01.113Z,55.42
2018-06-09T05:51:29.582Z,55.06
2018-06-09T05:53:58.278Z,55.28
2018-06-09T05:56:26.685Z,54.99
2018-06-09T05:58:55.353Z,54.56
2018-06-09T06:01:24.294Z,54.70
2018-06-09T06:03:52.723Z,53.92
2018-06-09T06:06:21.393Z,53.47
2018-06-09T06:08:50.073Z,53.82
2018-06-09T06:11:18.530Z,53.14
2018-06-09T06:13:46.949Z,52.98
2018-06-09T06:16:15.767Z,53.48
2018-06-09T06:18:44.260Z,53.26
2018-06-09T06:21:12.889Z,52.59
2018-06-09T06:23:41.702Z,52.31
2018-06-09T06:26:10.126Z,51.98
2018-06-09T06:28:38.530Z,51.99
2018-06-09T06:31:07.851Z,51.98
2018-06-09T06:33:36.275Z,51.61
2018-06-09T06:36:04.937Z,51.63
2018-06-09T06:38:33.631Z,51.09
2018-06-09T06:41:02.044Z,51.42
2018-06-09T06:43:30.489Z,50.95
2018-06-09T06:45:59.534Z,51.21
2018-06-09T06:48:28.073Z,50.59
2018-06-09T06:50:56.496Z,50.32
2018-06-09T06:53:25.108Z,49.93
2018-06-09T06:55:53.529Z,49.36
2018-06-09T06:58:21.946Z,49.69
2018-06-09T07:00:50.770Z,48.81
2018-06-09T07:03:19.217Z,49.24
2018-06-09T07:05:47.657Z,48.71
2018-06-09T07:08:16.817Z,48.01
2018-06-09T07:10:45.307Z,47.48
2018-06-09T07:13:13.722Z,46.80
2018-06-09T07:15:42.879Z,46.37
2018-06-09T07:18:11.801Z,46.64
2018-06-09T07:20:40.295Z,46.03
2018-06-09T07:23:09.309Z,45.25
2018-06-09T07:25:37.882Z,45.27
2018-06-09T07:28:06.329Z,44.89
2018-06-09T07:30:35.295Z,44.30
2018-06-09T07:33:03.877Z,43.06
2018-06-09T07:35:32.307Z,42.37
2018-06-09T07:38:02.586Z,41.30
2018-06-09T07:40:31.421Z,41.88
2018-06-09T07:42:59.842Z,40.84
2018-06-09T07:45:28.934Z,39.65
2018-06-09T07:47:57.556Z,40.04
2018-06-09T07:50:25.947Z,38.35
2018-06-09T07:52:55.006Z,36.86
2018-06-09T07:55:23.848Z,36.07
2018-06-09T07:57:52.273Z,35.23
2018-06-09T08:00:21.063Z,34.85
2018-06-09T08:02:49.574Z,35.17
2018-06-09T08:05:18.001Z,33.03
2018-06-09T08:07:46.633Z,33.20
2018-06-09T08:10:15.330Z,33.02
2018-06-09T08:12:43.773Z,32.80
2018-06-09T08:15:12.397Z,32.42
2018-06-09T08:17:41.105Z,32.59
2018-06-09T08:20:09.610Z,32.67
2018-06-09T08:22:39.654Z,32.82
2018-06-09T08:25:08.168Z,32.57
2018-06-09T08:27:36.573Z,32.89
2018-06-09T08:30:05.569Z,32.53
2018-06-09T08:32:34.415Z,32.58
2018-06-09T08:35:03.083Z,31.60
2018-06-09T08:37:31.721Z,30.89
2018-06-09T08:40:00.800Z,30.39
2018-06-09T08:42:29.346Z,31.12
2018-06-09T08:44:58.385Z,30.45
2018-06-09T08:47:26.801Z,30.58
2018-06-09T08:49:55.461Z,30.94
2018-06-09T08:52:24.076Z,30.23
2018-06-09T08:54:52.539Z,29.85
2018-06-09T08:57:21.098Z,29.82
2018-06-09T08:59:49.933Z,29.23
2018-06-09T09:02:18.426Z,28.84
2018-06-09T09:04:46.935Z,29.13
2018-06-09T09:07:15.601Z,29.76
2018-06-09T09:09:44.125Z,27.72
2018-06-09T09:12:12.570Z,27.78
2018-06-09T09:14:41.680Z,28.50
2018-06-09T09:17:10.145Z,28.32
2018-06-09T09:19:38.597Z,28.93
2018-06-09T09:22:08.657Z,28.70
2018-06-09T09:24:37.073Z,27.79
2018-06-09T09:27:05.801Z,28.78
2018-06-09T09:29:34.961Z,28.24
2018-06-09T09:32:03.376Z,28.32
2018-06-09T09:34:31.890Z,27.76
2018-06-09T09:37:00.646Z,26.66
2018-06-09T09:39:29.454Z,26.72
2018-06-09T09:41:58.487Z,26.55
2018-06-09T09:44:27.325Z,27.70
2018-06-09T09:46:55.789Z,27.39
2018-06-09T09:49:24.309Z,27.82
2018-06-09T09:51:53.769Z,27.70
2018-06-09T09:54:22.210Z,27.72
2018-06-09T09:56:50.693Z,27.20
2018-06-09T09:59:19.345Z,27.13
2018-06-09T10:01:47.786Z,27.18
2018-06-09T10:04:16.377Z,27.06
2018-06-09T10:06:45.489Z,26.99
2018-06-09T10:09:13.910Z,26.97
2018-06-09T10:11:42.396Z,26.67
2018-06-09T10:14:11.118Z,25.83
2018-06-09T10:16:39.531Z,26.66
2018-06-09T10:19:07.995Z,25.32
2018-06-09T10:21:36.973Z,26.17
2018-06-09T10:24:05.397Z,26.37
2018-06-09T10:26:33.867Z,25.24
2018-06-09T10:29:02.542Z,25.47
2018-06-09T10:31:30.957Z,26.03
2018-06-09T10:34:00.305Z,26.26
2018-06-09T10:36:29.333Z,25.50
2018-06-09T10:38:57.749Z,24.80
2018-06-09T10:41:26.708Z,26.01
2018-06-09T10:43:55.745Z,25.37
2018-06-09T10:46:24.150Z,25.76
2018-06-09T10:48:52.566Z,26.74
2018-06-09T10:51:21.635Z,26.28
2018-06-09T10:53:50.309Z,27.01
2018-06-09T10:56:18.726Z,26.44
2018-06-09T10:58:47.493Z,26.78
2018-06-09T11:01:15.914Z,27.48
2018-06-09T11:03:44.339Z,26.91
2018-06-09T11:06:13.214Z,26.73
2018-06-09T11:08:41.645Z,27.52
2018-06-09T11:11:10.065Z,27.29
2018-06-09T11:13:38.779Z,27.35
2018-06-09T11:16:08.001Z,25.83
2018-06-09T11:18:36.421Z,26.27
2018-06-09T11:21:05.185Z,26.46
2018-06-09T11:23:33.606Z,26.43
2018-06-09T11:26:02.119Z,26.69
2018-06-09T11:28:30.929Z,26.36
2018-06-09T11:30:59.442Z,26.04
2018-06-09T11:33:27.878Z,26.13
2018-06-09T11:35:56.445Z,26.99
2018-06-09T11:38:25.014Z,26.21
2018-06-09T11:40:53.501Z,25.70
2018-06-09T11:43:22.463Z,24.89
2018-06-09T11:45:50.949Z,25.02
2018-06-09T11:48:19.421Z,24.75
2018-06-09T11:50:48.178Z,25.19
2018-06-09T11:53:16.703Z,24.75
2018-06-09T11:55:45.405Z,25.07
2018-06-09T11:58:14.245Z,25.30
2018-06-09T12:00:42.697Z,25.54
2018-06-09T12:03:11.162Z,25.38
2018-06-09T12:05:39.783Z,25.61
2018-06-09T12:08:08.426Z,26.51
2018-06-09T12:10:37.193Z,26.08
2018-06-09T12:13:05.802Z,25.60
2018-06-09T12:15:34.270Z,25.47
2018-06-09T12:18:02.774Z,24.79
2018-06-09T12:20:31.510Z,24.73
2018-06-09T12:23:00.014Z,26.51
2018-06-09T12:25:28.707Z,26.36
2018-06-09T12:27:57.534Z,26.15
2018-06-09T12:30:25.965Z,26.37
2018-06-09T12:32:54.606Z,25.61
2018-06-09T12:35:23.595Z,25.72
2018-06-09T12:37:52.038Z,24.61
2018-06-09T12:40:20.605Z,25.77
2018-06-09T12:42:49.518Z,25.54
2018-06-09T12:45:17.998Z,25.48
2018-06-09T12:47:46.497Z,26.38
2018-06-09T12:50:15.135Z,24.47
2018-06-09T12:52:43.557Z,25.29
2018-06-09T12:55:12.177Z,25.54
2018-06-09T12:57:41.409Z,24.79
2018-06-09T13:00:09.855Z,24.64
2018-06-09T13:02:38.463Z,24.76
2018-06-09T13:05:07.561Z,25.31
2018-06-09T13:07:36.056Z,24.66
2018-06-09T13:10:04.781Z,24.72
2018-06-09T13:12:33.849Z,23.37
2018-06-09T13:15:02.262Z,24.87
2018-06-09T13:17:30.831Z,23.71
2018-06-09T13:19:59.773Z,23.98
2018-06-09T13:22:28.186Z,22.79
2018-06-09T13:24:56.715Z,22.93
2018-06-09T13:27:25.358Z,22.30
2018-06-09T13:29:53.785Z,22.26
2018-06-09T13:32:22.211Z,22.37
2018-06-09T13:34:51.113Z,23.83
2018-06-09T13:37:19.542Z,22.30
2018-06-09T13:39:48.150Z,21.30
2018-06-09T13:42:17.174Z,21.72
2018-06-09T13:44:45.602Z,22.05
2018-06-09T13:47:14.382Z,22.56
2018-06-09T13:49:43.097Z,23.09
2018-06-09T13:52:11.507Z,23.19
2018-06-09T13:54:40.331Z,22.02
2018-06-09T13:57:08.993Z,21.69
2018-06-09T13:59:37.832Z,21.26
2018-06-09T14:02:06.481Z,20.65
2018-06-09T14:04:35.341Z,21.38
2018-06-09T14:07:03.796Z,21.15
2018-06-09T14:09:32.333Z,22.16
2018-06-09T14:12:01.665Z,21.94
2018-06-09T14:14:30.149Z,21.65
2018-06-09T14:16:58.822Z,22.54
2018-06-09T14:19:27.570Z,22.74
2018-06-09T14:21:55.996Z,22.13
2018-06-09T14:24:24.709Z,21.56
2018-06-09T14:26:53.360Z,21.49
2018-06-09T14:29:21.850Z,22.15
2018-06-09T14:31:51.076Z,22.10
2018-06-09T14:34:20.187Z,21.52
2018-06-09T14:36:48.624Z,22.20
2018-06-09T14:39:17.461Z,23.07
2018-06-09T14:41:46.405Z,23.62
2018-06-09T14:44:14.821Z,22.41
2018-06-09T14:46:43.962Z,23.45
2018-06-09T14:49:13.212Z,24.19
2018-06-09T14:51:41.679Z,23.65
2018-06-09T14:54:10.426Z,23.37
2018-06-09T14:56:39.163Z,23.24
2018-06-09T14:59:07.586Z,22.87
2018-06-09T15:01:36.518Z,22.68
2018-06-09T15:04:05.263Z,21.86
2018-06-09T15:06:33.674Z,22.68
2018-06-09T15:09:02.162Z,22.31
2018-06-09T15:11:30.849Z,23.97
2018-06-09T15:13:59.242Z,23.28
2018-06-09T15:16:27.662Z,24.15
2018-06-09T15:18:56.311Z,23.67
2018-06-09T15:21:24.734Z,23.25
2018-06-09T15:23:53.409Z,24.12
2018-06-09T15:26:21.955Z,23.60
2018-06-09T15:28:50.481Z,23.83
2018-06-09T15:31:19.237Z,24.51
2018-06-09T15:33:48.376Z,24.05
2018-06-09T15:36:17.575Z,23.41
2018-06-09T15:38:46.069Z,23.78
2018-06-09T15:41:15.263Z,22.33
2018-06-09T15:43:43.725Z,22.54
2018-06-09T15:46:12.516Z,21.11
2018-06-09T15:48:41.359Z,22.20
2018-06-09T15:51:09.773Z,22.46
2018-06-09T15:53:38.574Z,22.28
2018-06-09T15:56:07.171Z,22.67
2018-06-09T15:58:35.579Z,22.45
2018-06-09T16:01:04.122Z,22.24
2018-06-09T16:03:32.910Z,21.96
2018-06-09T16:06:01.918Z,22.23
2018-06-09T16:08:30.905Z,22.29
2018-06-09T16:11:00.143Z,22.41
2018-06-09T16:13:28.579Z,22.14
2018-06-09T16:15:57.075Z,22.25
2018-06-09T16:18:25.888Z,22.16
2018-06-09T16:20:54.424Z,22.29
2018-06-09T16:23:23.090Z,22.31
2018-06-09T16:25:51.947Z,22.23
2018-06-09T16:28:20.454Z,22.23
2018-06-09T16:30:48.941Z,22.87
2018-06-09T16:33:17.582Z,23.99
2018-06-09T16:35:46.006Z,24.48
2018-06-09T16:38:14.614Z,25.04
2018-06-09T16:40:43.235Z,26.59
2018-06-09T16:43:11.663Z,26.68
2018-06-09T16:45:40.312Z,27.88
2018-06-09T16:48:09.186Z,28.28
2018-06-09T16:50:37.623Z,28.44
2018-06-09T16:53:06.055Z,29.20
2018-06-09T16:55:34.777Z,28.97
2018-06-09T16:58:03.984Z,29.69
2018-06-09T17:00:32.758Z,29.47
2018-06-09T17:03:03.450Z,29.73
2018-06-09T17:05:32.027Z,30.06
2018-06-09T17:08:01.159Z,29.87
2018-06-09T17:10:30.126Z,30.15
2018-06-09T17:12:58.539Z,30.27
2018-06-09T17:15:27.338Z,29.81
2018-06-09T17:17:55.889Z,30.29
2018-06-09T17:20:24.429Z,30.75
2018-06-09T17:22:53.003Z,30.76
2018-06-09T17:25:21.713Z,30.70
2018-06-09T17:27:50.137Z,30.98
2018-06-09T17:30:18.965Z,31.83
2018-06-09T17:32:47.506Z,31.49
2018-06-09T17:35:15.933Z,32.07
2018-06-09T17:37:44.496Z,32.90
2018-06-09T17:40:13.230Z,33.10
2018-06-09T17:42:41.661Z,33.18
2018-06-09T17:45:10.338Z,33.25
2018-06-09T17:47:39.477Z,33.79
2018-06-09T17:50:08.002Z,33.80
2018-06-09T17:52:36.701Z,33.38
2018-06-09T17:55:05.533Z,33.61
2018-06-09T17:57:34.122Z,33.65
2018-06-09T18:00:19.562Z,34.44
2018-06-09T18:02:48.201Z,34.39
2018-06-09T18:05:16.625Z,34.93
2018-06-09T18:07:45.613Z,34.53
2018-06-09T18:10:14.205Z,35.14
2018-06-09T18:12:42.643Z,34.82
2018-06-09T18:15:11.218Z,35.41
2018-06-09T18:17:40.037Z,35.94
2018-06-09T18:20:08.518Z,35.72
2018-06-09T18:22:37.399Z,36.04
2018-06-09T18:25:06.250Z,36.15
2018-06-09T18:27:34.669Z,36.21
2018-06-09T18:30:03.233Z,36.50
2018-06-09T18:32:48.204Z,36.47
2018-06-09T18:35:18.047Z,36.98
2018-06-09T18:37:46.603Z,37.33
2018-06-09T18:40:15.167Z,37.61
2018-06-09T18:42:44.255Z,37.89
2018-06-09T18:45:12.883Z,37.96
2018-06-09T18:47:41.530Z,38.05
2018-06-09T18:50:10.719Z,38.44
2018-06-09T18:52:39.208Z,38.66
2018-06-09T18:55:07.686Z,38.94
2018-06-09T18:57:36.471Z,39.31
2018-06-09T19:00:05.553Z,39.42
2018-06-09T19:02:33.969Z,39.71
2018-06-09T19:05:02.582Z,39.67
2018-06-09T19:07:31.346Z,39.81
2018-06-09T19:10:00.606Z,39.92
2018-06-09T19:12:29.154Z,39.98
2018-06-09T19:14:58.014Z,39.92
2018-06-09T19:17:26.451Z,39.88
2018-06-09T19:19:55.305Z,40.07
2018-06-09T19:22:23.861Z,40.26
2018-06-09T19:24:52.297Z,40.14
2018-06-09T19:27:20.917Z,40.35
2018-06-09T19:29:49.532Z,40.39
2018-06-09T19:32:17.965Z,40.07
2018-06-09T19:34:46.672Z,40.73
2018-06-09T19:37:15.182Z,40.55
2018-06-09T19:39:43.605Z,40.64
2018-06-09T19:42:12.202Z,40.77
2018-06-09T19:44:40.689Z,40.86
2018-06-09T19:47:09.105Z,41.10
2018-06-09T19:49:37.929Z,40.79
2018-06-09T19:52:06.769Z,41.56
2018-06-09T19:54:35.200Z,41.04
2018-06-09T19:57:03.766Z,41.45
2018-06-09T19:59:32.529Z,41.57
2018-06-09T20:02:00.997Z,41.56
2018-06-09T20:04:29.653Z,41.92
2018-06-09T20:06:58.256Z,41.95
2018-06-09T20:09:26.731Z,41.66
2018-06-09T20:11:55.543Z,42.20
2018-06-09T20:14:24.123Z,42.24
2018-06-09T20:16:52.541Z,41.96
2018-06-09T20:19:21.082Z,41.95
2018-06-09T20:21:49.597Z,42.60
2018-06-09T20:24:18.009Z,43.13
2018-06-09T20:26:46.550Z,42.61
2018-06-09T20:29:15.056Z,43.29
2018-06-09T20:31:44.143Z,43.45
2018-06-09T20:34:13.045Z,43.14
2018-06-09T20:36:41.457Z,43.46
2018-06-09T20:39:10.097Z,43.89
2018-06-09T20:41:38.785Z,43.70
2018-06-09T20:44:07.307Z,44.14
2018-06-09T20:46:35.765Z,44.17
2018-06-09T20:49:04.602Z,44.13
2018-06-09T20:51:33.077Z,44.02
2018-06-09T20:54:01.587Z,44.48
2018-06-09T20:56:30.181Z,44.23
2018-06-09T20:58:58.609Z,44.27
2018-06-09T21:01:27.193Z,44.59
2018-06-09T21:03:56.037Z,44.63
2018-06-09T21:06:24.558Z,45.24
2018-06-09T21:08:53.013Z,45.10
2018-06-09T21:11:21.754Z,45.41
2018-06-09T21:13:50.394Z,45.22
2018-06-09T21:16:18.946Z,45.25
2018-06-09T21:18:48.567Z,45.71
2018-06-09T21:21:16.981Z,45.65
2018-06-09T21:23:45.410Z,46.02
2018-06-09T21:26:14.569Z,46.57
2018-06-09T21:28:48.247Z,46.39
2018-06-09T21:31:18.182Z,46.58
2018-06-09T21:34:03.095Z,46.50
2018-06-09T21:38:42.673Z,46.75
2018-06-09T21:41:16.395Z,46.22
2018-06-09T21:43:50.408Z,46.60
2018-06-09T21:46:23.904Z,47.62
2018-06-09T21:48:52.737Z,47.60
2018-06-09T21:51:21.169Z,48.40
2018-06-09T21:53:49.622Z,48.62
2018-06-09T21:56:18.699Z,48.45
2018-06-09T21:58:47.117Z,48.96
2018-06-09T22:01:15.529Z,49.04
2018-06-09T22:03:44.512Z,49.12
2018-06-09T22:06:12.946Z,48.56
2018-06-09T22:08:41.364Z,49.14
2018-06-09T22:11:10.025Z,49.15
2018-06-09T22:13:38.495Z,49.33
2018-06-09T22:16:07.077Z,49.34
2018-06-09T22:18:36.253Z,49.13
2018-06-09T22:21:04.677Z,49.72
2018-06-09T22:23:33.097Z,49.77
2018-06-09T22:26:02.277Z,49.63
2018-06-09T22:28:30.705Z,49.71
2018-06-09T22:31:00.182Z,49.72
2018-06-09T22:33:29.013Z,49.73
2018-06-09T22:35:57.450Z,50.33
2018-06-09T22:38:25.857Z,50.38
2018-06-09T22:40:54.489Z,50.55
2018-06-09T22:43:22.923Z,50.46
2018-06-09T22:45:51.359Z,50.83
2018-06-09T22:48:20.016Z,50.86
2018-06-09T22:50:48.469Z,51.13
2018-06-09T22:53:16.907Z,51.53
2018-06-09T22:55:46.073Z,51.53
2018-06-09T22:58:14.507Z,52.24
2018-06-09T23:00:48.213Z,52.54
2018-06-09T23:03:17.181Z,52.35
2018-06-09T23:05:46.197Z,52.92
2018-06-09T23:08:14.857Z,53.19
2018-06-09T23:10:43.265Z,53.46
2018-06-09T23:13:11.702Z,53.84
2018-06-09T23:15:40.626Z,53.71
2018-06-09T23:18:09.264Z,53.70
2018-06-09T23:20:37.673Z,54.10
2018-06-09T23:23:06.681Z,54.07
2018-06-09T23:25:35.091Z,54.04
2018-06-09T23:28:03.520Z,54.17
2018-06-09T23:30:32.131Z,54.01
2018-06-09T23:33:00.556Z,54.15
2018-06-09T23:35:29.029Z,54.12
2018-06-09T23:37:58.243Z,54.17
2018-06-09T23:40:26.702Z,54.78
2018-06-09T23:42:55.121Z,54.37
2018-06-09T23:45:23.991Z,54.44
2018-06-09T23:47:52.534Z,54.36
2018-06-09T23:50:20.998Z,54.03
2018-06-09T23:52:50.657Z,54.71
2018-06-09T23:55:19.105Z,54.57
2018-06-09T23:57:47.526Z,54.92
